sensor_id;sensor_type;location;lat;lon;timestamp;P1;durP1;ratioP1;P2;durP2;ratioP2
3487;SDS011;38546;48.170;11.724;2024-02-15T00:01:19;3.30;;;3.10;;
3487;SDS011;38546;48.170;11.724;2024-02-15T00:03:50;3.20;;;2.90;;
3487;SDS011;38546;48.170;11.724;2024-02-15T00:06:20;4.10;;;2.97;;
3487;SDS011;38546;48.170;11.724;2024-02-15T00:08:51;2.40;;;2.20;;
3487;SDS011;38546;48.170;11.724;2024-02-15T00:11:22;2.43;;;2.23;;
3487;SDS011;38546;48.170;11.724;2024-02-15T00:13:53;2.33;;;2.17;;
3487;SDS011;38546;48.170;11.724;2024-02-15T00:16:23;2.97;;;2.77;;
3487;SDS011;38546;48.170;11.724;2024-02-15T00:18:54;2.60;;;2.40;;
3487;SDS011;38546;48.170;11.724;2024-02-15T00:21:25;2.40;;;2.20;;
3487;SDS011;38546;48.170;11.724;2024-02-15T00:23:56;2.40;;;2.20;;
3487;SDS011;38546;48.170;11.724;2024-02-15T00:26:27;2.20;;;2.07;;
3487;SDS011;38546;48.170;11.724;2024-02-15T00:28:57;2.20;;;2.10;;
3487;SDS011;38546;48.170;11.724;2024-02-15T00:31:28;2.33;;;2.13;;
3487;SDS011;38546;48.170;11.724;2024-02-15T00:33:59;2.60;;;2.47;;
3487;SDS011;38546;48.170;11.724;2024-02-15T00:36:29;3.33;;;2.73;;
3487;SDS011;38546;48.170;11.724;2024-02-15T00:39:00;2.40;;;2.30;;
3487;SDS011;38546;48.170;11.724;2024-02-15T00:41:31;3.00;;;2.63;;
3487;SDS011;38546;48.170;11.724;2024-02-15T00:44:03;2.17;;;2.07;;
3487;SDS011;38546;48.170;11.724;2024-02-15T00:46:34;1.80;;;1.70;;
3487;SDS011;38546;48.170;11.724;2024-02-15T00:49:06;2.57;;;2.30;;
3487;SDS011;38546;48.170;11.724;2024-02-15T00:51:37;2.27;;;2.13;;
3487;SDS011;38546;48.170;11.724;2024-02-15T00:54:08;2.07;;;1.93;;
3487;SDS011;38546;48.170;11.724;2024-02-15T00:56:39;2.60;;;2.03;;
3487;SDS011;38546;48.170;11.724;2024-02-15T00:59:09;2.43;;;2.20;;
3487;SDS011;38546;48.170;11.724;2024-02-15T01:01:40;2.30;;;2.20;;
3487;SDS011;38546;48.170;11.724;2024-02-15T01:04:11;2.43;;;2.23;;
3487;SDS011;38546;48.170;11.724;2024-02-15T01:06:41;2.03;;;2.03;;
3487;SDS011;38546;48.170;11.724;2024-02-15T01:09:12;2.00;;;1.90;;
3487;SDS011;38546;48.170;11.724;2024-02-15T01:11:43;2.30;;;2.10;;
3487;SDS011;38546;48.170;11.724;2024-02-15T01:14:14;1.57;;;1.47;;
3487;SDS011;38546;48.170;11.724;2024-02-15T01:16:45;1.93;;;1.83;;
3487;SDS011;38546;48.170;11.724;2024-02-15T01:19:16;2.63;;;2.10;;
3487;SDS011;38546;48.170;11.724;2024-02-15T01:21:47;1.43;;;1.43;;
3487;SDS011;38546;48.170;11.724;2024-02-15T01:24:18;1.93;;;1.83;;
3487;SDS011;38546;48.170;11.724;2024-02-15T01:26:48;1.93;;;1.83;;
3487;SDS011;38546;48.170;11.724;2024-02-15T01:29:19;2.00;;;1.90;;
3487;SDS011;38546;48.170;11.724;2024-02-15T01:31:50;1.70;;;1.60;;
3487;SDS011;38546;48.170;11.724;2024-02-15T01:34:22;1.67;;;1.57;;
3487;SDS011;38546;48.170;11.724;2024-02-15T01:36:53;2.23;;;1.70;;
3487;SDS011;38546;48.170;11.724;2024-02-15T01:39:23;2.07;;;1.87;;
3487;SDS011;38546;48.170;11.724;2024-02-15T01:41:54;2.10;;;1.80;;
3487;SDS011;38546;48.170;11.724;2024-02-15T01:44:26;2.37;;;1.83;;
3487;SDS011;38546;48.170;11.724;2024-02-15T01:46:57;1.63;;;1.47;;
3487;SDS011;38546;48.170;11.724;2024-02-15T01:49:30;2.00;;;1.90;;
3487;SDS011;38546;48.170;11.724;2024-02-15T01:52:00;2.50;;;1.90;;
3487;SDS011;38546;48.170;11.724;2024-02-15T01:54:34;1.60;;;1.50;;
3487;SDS011;38546;48.170;11.724;2024-02-15T01:57:09;1.83;;;1.70;;
3487;SDS011;38546;48.170;11.724;2024-02-15T01:59:39;1.97;;;1.87;;
3487;SDS011;38546;48.170;11.724;2024-02-15T02:02:11;3.70;;;2.07;;
3487;SDS011;38546;48.170;11.724;2024-02-15T02:04:45;1.73;;;1.63;;
3487;SDS011;38546;48.170;11.724;2024-02-15T02:07:15;2.30;;;2.10;;
3487;SDS011;38546;48.170;11.724;2024-02-15T02:09:46;1.93;;;1.83;;
3487;SDS011;38546;48.170;11.724;2024-02-15T02:12:17;1.90;;;1.80;;
3487;SDS011;38546;48.170;11.724;2024-02-15T02:14:48;1.80;;;1.70;;
3487;SDS011;38546;48.170;11.724;2024-02-15T02:17:19;1.80;;;1.70;;
3487;SDS011;38546;48.170;11.724;2024-02-15T02:19:51;2.20;;;2.03;;
3487;SDS011;38546;48.170;11.724;2024-02-15T02:22:22;1.80;;;1.47;;
3487;SDS011;38546;48.170;11.724;2024-02-15T02:25:05;2.10;;;1.90;;
3487;SDS011;38546;48.170;11.724;2024-02-15T02:27:40;1.53;;;1.43;;
3487;SDS011;38546;48.170;11.724;2024-02-15T02:30:15;2.37;;;1.50;;
3487;SDS011;38546;48.170;11.724;2024-02-15T02:32:51;1.70;;;1.70;;
3487;SDS011;38546;48.170;11.724;2024-02-15T02:35:21;2.20;;;1.80;;
3487;SDS011;38546;48.170;11.724;2024-02-15T02:37:53;2.30;;;1.50;;
3487;SDS011;38546;48.170;11.724;2024-02-15T02:40:23;2.80;;;1.73;;
3487;SDS011;38546;48.170;11.724;2024-02-15T02:42:55;1.87;;;1.77;;
3487;SDS011;38546;48.170;11.724;2024-02-15T02:45:29;1.33;;;1.23;;
3487;SDS011;38546;48.170;11.724;2024-02-15T02:48:00;4.20;;;2.10;;
3487;SDS011;38546;48.170;11.724;2024-02-15T02:50:31;1.37;;;1.37;;
3487;SDS011;38546;48.170;11.724;2024-02-15T02:53:02;2.23;;;1.70;;
3487;SDS011;38546;48.170;11.724;2024-02-15T02:55:33;1.70;;;1.70;;
3487;SDS011;38546;48.170;11.724;2024-02-15T02:58:04;2.07;;;1.87;;
3487;SDS011;38546;48.170;11.724;2024-02-15T03:00:35;1.53;;;1.53;;
3487;SDS011;38546;48.170;11.724;2024-02-15T03:03:07;1.60;;;1.60;;
3487;SDS011;38546;48.170;11.724;2024-02-15T03:05:37;1.50;;;1.50;;
3487;SDS011;38546;48.170;11.724;2024-02-15T03:08:13;1.50;;;1.40;;
3487;SDS011;38546;48.170;11.724;2024-02-15T03:10:45;1.70;;;1.60;;
3487;SDS011;38546;48.170;11.724;2024-02-15T03:13:16;1.67;;;1.50;;
3487;SDS011;38546;48.170;11.724;2024-02-15T03:15:49;1.73;;;1.63;;
3487;SDS011;38546;48.170;11.724;2024-02-15T03:18:19;1.60;;;1.50;;
3487;SDS011;38546;48.170;11.724;2024-02-15T03:20:50;2.17;;;1.90;;
3487;SDS011;38546;48.170;11.724;2024-02-15T03:23:20;1.47;;;1.33;;
3487;SDS011;38546;48.170;11.724;2024-02-15T03:25:51;1.30;;;1.20;;
3487;SDS011;38546;48.170;11.724;2024-02-15T03:28:23;1.83;;;1.50;;
3487;SDS011;38546;48.170;11.724;2024-02-15T03:30:54;1.53;;;1.43;;
3487;SDS011;38546;48.170;11.724;2024-02-15T03:33:25;1.60;;;1.50;;
3487;SDS011;38546;48.170;11.724;2024-02-15T03:36:03;1.57;;;1.57;;
3487;SDS011;38546;48.170;11.724;2024-02-15T03:38:35;1.63;;;1.53;;
3487;SDS011;38546;48.170;11.724;2024-02-15T03:41:05;1.57;;;1.47;;
3487;SDS011;38546;48.170;11.724;2024-02-15T03:43:36;1.60;;;1.50;;
3487;SDS011;38546;48.170;11.724;2024-02-15T03:46:07;1.40;;;1.30;;
3487;SDS011;38546;48.170;11.724;2024-02-15T03:48:42;1.53;;;1.43;;
3487;SDS011;38546;48.170;11.724;2024-02-15T03:51:19;1.63;;;1.60;;
3487;SDS011;38546;48.170;11.724;2024-02-15T03:53:50;1.83;;;1.50;;
3487;SDS011;38546;48.170;11.724;2024-02-15T03:56:22;1.83;;;1.73;;
3487;SDS011;38546;48.170;11.724;2024-02-15T03:58:53;1.50;;;1.40;;
3487;SDS011;38546;48.170;11.724;2024-02-15T04:01:23;1.27;;;1.27;;
3487;SDS011;38546;48.170;11.724;2024-02-15T04:03:54;1.97;;;1.87;;
3487;SDS011;38546;48.170;11.724;2024-02-15T04:06:25;1.60;;;1.50;;
3487;SDS011;38546;48.170;11.724;2024-02-15T04:08:58;1.60;;;1.53;;
3487;SDS011;38546;48.170;11.724;2024-02-15T04:11:29;1.20;;;1.10;;
3487;SDS011;38546;48.170;11.724;2024-02-15T04:14:01;1.30;;;1.30;;
3487;SDS011;38546;48.170;11.724;2024-02-15T04:16:32;1.30;;;1.20;;
3487;SDS011;38546;48.170;11.724;2024-02-15T04:19:05;1.50;;;1.40;;
3487;SDS011;38546;48.170;11.724;2024-02-15T04:21:36;1.77;;;1.57;;
3487;SDS011;38546;48.170;11.724;2024-02-15T04:24:08;1.47;;;1.37;;
3487;SDS011;38546;48.170;11.724;2024-02-15T04:26:39;1.60;;;1.50;;
3487;SDS011;38546;48.170;11.724;2024-02-15T04:29:10;1.60;;;1.50;;
3487;SDS011;38546;48.170;11.724;2024-02-15T04:31:42;1.70;;;1.63;;
3487;SDS011;38546;48.170;11.724;2024-02-15T04:34:13;2.40;;;1.57;;
3487;SDS011;38546;48.170;11.724;2024-02-15T04:36:45;1.90;;;1.80;;
3487;SDS011;38546;48.170;11.724;2024-02-15T04:39:20;1.80;;;1.70;;
3487;SDS011;38546;48.170;11.724;2024-02-15T04:41:56;2.30;;;2.10;;
3487;SDS011;38546;48.170;11.724;2024-02-15T04:44:27;1.20;;;1.20;;
3487;SDS011;38546;48.170;11.724;2024-02-15T04:46:58;1.60;;;1.40;;
3487;SDS011;38546;48.170;11.724;2024-02-15T04:49:28;2.40;;;1.70;;
3487;SDS011;38546;48.170;11.724;2024-02-15T04:52:00;1.80;;;1.50;;
3487;SDS011;38546;48.170;11.724;2024-02-15T04:54:32;1.30;;;1.20;;
3487;SDS011;38546;48.170;11.724;2024-02-15T04:57:03;1.60;;;1.50;;
3487;SDS011;38546;48.170;11.724;2024-02-15T04:59:36;5.43;;;2.03;;
3487;SDS011;38546;48.170;11.724;2024-02-15T05:02:07;1.60;;;1.50;;
3487;SDS011;38546;48.170;11.724;2024-02-15T05:04:37;1.57;;;1.47;;
3487;SDS011;38546;48.170;11.724;2024-02-15T05:07:12;1.80;;;1.70;;
3487;SDS011;38546;48.170;11.724;2024-02-15T05:09:47;3.17;;;1.60;;
3487;SDS011;38546;48.170;11.724;2024-02-15T05:12:21;2.00;;;1.90;;
3487;SDS011;38546;48.170;11.724;2024-02-15T05:14:55;1.77;;;1.67;;
3487;SDS011;38546;48.170;11.724;2024-02-15T05:17:26;1.80;;;1.70;;
3487;SDS011;38546;48.170;11.724;2024-02-15T05:20:01;1.70;;;1.47;;
3487;SDS011;38546;48.170;11.724;2024-02-15T05:22:40;1.93;;;1.80;;
3487;SDS011;38546;48.170;11.724;2024-02-15T05:25:18;1.53;;;1.10;;
3487;SDS011;38546;48.170;11.724;2024-02-15T05:27:53;1.93;;;1.80;;
3487;SDS011;38546;48.170;11.724;2024-02-15T05:30:24;1.60;;;1.50;;
3487;SDS011;38546;48.170;11.724;2024-02-15T05:32:55;1.47;;;1.33;;
3487;SDS011;38546;48.170;11.724;2024-02-15T05:35:26;7.30;;;1.77;;
3487;SDS011;38546;48.170;11.724;2024-02-15T05:37:58;2.47;;;1.50;;
3487;SDS011;38546;48.170;11.724;2024-02-15T05:40:28;1.47;;;1.37;;
3487;SDS011;38546;48.170;11.724;2024-02-15T05:43:00;1.60;;;1.50;;
3487;SDS011;38546;48.170;11.724;2024-02-15T05:45:32;2.00;;;1.80;;
3487;SDS011;38546;48.170;11.724;2024-02-15T05:48:04;2.00;;;1.90;;
3487;SDS011;38546;48.170;11.724;2024-02-15T05:50:37;2.60;;;2.40;;
3487;SDS011;38546;48.170;11.724;2024-02-15T05:53:07;2.17;;;1.70;;
3487;SDS011;38546;48.170;11.724;2024-02-15T05:55:38;1.70;;;1.60;;
3487;SDS011;38546;48.170;11.724;2024-02-15T05:58:11;1.80;;;1.70;;
3487;SDS011;38546;48.170;11.724;2024-02-15T06:00:43;1.90;;;1.80;;
3487;SDS011;38546;48.170;11.724;2024-02-15T06:03:14;1.70;;;1.60;;
3487;SDS011;38546;48.170;11.724;2024-02-15T06:05:45;1.67;;;1.57;;
3487;SDS011;38546;48.170;11.724;2024-02-15T06:08:16;2.40;;;1.87;;
3487;SDS011;38546;48.170;11.724;2024-02-15T06:10:47;2.63;;;1.60;;
3487;SDS011;38546;48.170;11.724;2024-02-15T06:13:18;2.97;;;1.77;;
3487;SDS011;38546;48.170;11.724;2024-02-15T06:15:53;2.20;;;1.67;;
3487;SDS011;38546;48.170;11.724;2024-02-15T06:18:25;1.70;;;1.60;;
3487;SDS011;38546;48.170;11.724;2024-02-15T06:20:59;2.30;;;1.87;;
3487;SDS011;38546;48.170;11.724;2024-02-15T06:23:31;1.70;;;1.63;;
3487;SDS011;38546;48.170;11.724;2024-02-15T06:26:03;2.30;;;1.70;;
3487;SDS011;38546;48.170;11.724;2024-02-15T06:28:34;2.23;;;2.10;;
3487;SDS011;38546;48.170;11.724;2024-02-15T06:31:22;2.00;;;1.90;;
3487;SDS011;38546;48.170;11.724;2024-02-15T06:35:27;2.40;;;1.70;;
3487;SDS011;38546;48.170;11.724;2024-02-15T06:38:16;1.97;;;1.87;;
3487;SDS011;38546;48.170;11.724;2024-02-15T06:41:05;3.43;;;2.73;;
3487;SDS011;38546;48.170;11.724;2024-02-15T06:43:36;3.30;;;2.57;;
3487;SDS011;38546;48.170;11.724;2024-02-15T06:46:07;3.97;;;3.13;;
3487;SDS011;38546;48.170;11.724;2024-02-15T06:48:41;2.80;;;2.60;;
3487;SDS011;38546;48.170;11.724;2024-02-15T06:51:14;4.30;;;2.73;;
3487;SDS011;38546;48.170;11.724;2024-02-15T06:53:46;2.37;;;1.93;;
3487;SDS011;38546;48.170;11.724;2024-02-15T06:56:17;2.10;;;1.87;;
3487;SDS011;38546;48.170;11.724;2024-02-15T06:58:49;1.97;;;1.87;;
3487;SDS011;38546;48.170;11.724;2024-02-15T07:01:20;2.00;;;1.90;;
3487;SDS011;38546;48.170;11.724;2024-02-15T07:03:51;1.77;;;1.67;;
3487;SDS011;38546;48.170;11.724;2024-02-15T07:06:22;2.30;;;2.13;;
3487;SDS011;38546;48.170;11.724;2024-02-15T07:08:53;3.70;;;2.10;;
3487;SDS011;38546;48.170;11.724;2024-02-15T07:11:26;2.03;;;1.80;;
3487;SDS011;38546;48.170;11.724;2024-02-15T07:13:58;2.53;;;1.73;;
3487;SDS011;38546;48.170;11.724;2024-02-15T07:16:28;5.30;;;2.33;;
3487;SDS011;38546;48.170;11.724;2024-02-15T07:18:59;2.53;;;1.70;;
3487;SDS011;38546;48.170;11.724;2024-02-15T07:21:31;1.63;;;1.63;;
3487;SDS011;38546;48.170;11.724;2024-02-15T07:24:02;5.30;;;3.20;;
3487;SDS011;38546;48.170;11.724;2024-02-15T07:26:34;2.03;;;1.80;;
3487;SDS011;38546;48.170;11.724;2024-02-15T07:29:06;5.03;;;1.90;;
3487;SDS011;38546;48.170;11.724;2024-02-15T07:31:37;2.40;;;2.20;;
3487;SDS011;38546;48.170;11.724;2024-02-15T07:34:08;4.40;;;2.13;;
3487;SDS011;38546;48.170;11.724;2024-02-15T07:36:40;2.60;;;2.10;;
3487;SDS011;38546;48.170;11.724;2024-02-15T07:39:12;4.43;;;2.33;;
3487;SDS011;38546;48.170;11.724;2024-02-15T07:41:56;6.73;;;2.83;;
3487;SDS011;38546;48.170;11.724;2024-02-15T07:44:30;3.17;;;2.00;;
3487;SDS011;38546;48.170;11.724;2024-02-15T07:47:02;6.13;;;3.00;;
3487;SDS011;38546;48.170;11.724;2024-02-15T07:49:34;2.57;;;2.43;;
3487;SDS011;38546;48.170;11.724;2024-02-15T07:52:06;7.23;;;2.20;;
3487;SDS011;38546;48.170;11.724;2024-02-15T07:54:37;4.30;;;2.67;;
3487;SDS011;38546;48.170;11.724;2024-02-15T07:57:08;2.47;;;2.27;;
3487;SDS011;38546;48.170;11.724;2024-02-15T07:59:40;7.70;;;2.47;;
3487;SDS011;38546;48.170;11.724;2024-02-15T08:02:12;2.00;;;1.90;;
3487;SDS011;38546;48.170;11.724;2024-02-15T08:04:47;3.00;;;2.30;;
3487;SDS011;38546;48.170;11.724;2024-02-15T08:07:18;2.20;;;2.00;;
3487;SDS011;38546;48.170;11.724;2024-02-15T08:09:50;4.40;;;2.10;;
3487;SDS011;38546;48.170;11.724;2024-02-15T08:12:21;2.33;;;2.17;;
3487;SDS011;38546;48.170;11.724;2024-02-15T08:14:52;3.87;;;2.60;;
3487;SDS011;38546;48.170;11.724;2024-02-15T08:17:23;2.07;;;1.97;;
3487;SDS011;38546;48.170;11.724;2024-02-15T08:19:53;2.60;;;2.37;;
3487;SDS011;38546;48.170;11.724;2024-02-15T08:22:24;3.20;;;2.60;;
3487;SDS011;38546;48.170;11.724;2024-02-15T08:25:00;12.90;;;3.00;;
3487;SDS011;38546;48.170;11.724;2024-02-15T08:27:31;2.53;;;2.43;;
3487;SDS011;38546;48.170;11.724;2024-02-15T08:30:02;5.03;;;2.37;;
3487;SDS011;38546;48.170;11.724;2024-02-15T08:32:34;3.83;;;2.10;;
3487;SDS011;38546;48.170;11.724;2024-02-15T08:35:06;2.10;;;2.00;;
3487;SDS011;38546;48.170;11.724;2024-02-15T08:37:41;2.10;;;1.93;;
3487;SDS011;38546;48.170;11.724;2024-02-15T08:40:13;3.40;;;2.13;;
3487;SDS011;38546;48.170;11.724;2024-02-15T08:42:45;2.20;;;2.00;;
3487;SDS011;38546;48.170;11.724;2024-02-15T08:45:16;3.53;;;1.80;;
3487;SDS011;38546;48.170;11.724;2024-02-15T08:47:46;2.53;;;2.33;;
3487;SDS011;38546;48.170;11.724;2024-02-15T08:50:22;2.30;;;2.00;;
3487;SDS011;38546;48.170;11.724;2024-02-15T08:52:53;2.30;;;2.10;;
3487;SDS011;38546;48.170;11.724;2024-02-15T08:55:25;4.90;;;3.30;;
3487;SDS011;38546;48.170;11.724;2024-02-15T08:57:57;4.00;;;2.93;;
3487;SDS011;38546;48.170;11.724;2024-02-15T09:00:29;2.50;;;2.13;;
3487;SDS011;38546;48.170;11.724;2024-02-15T09:03:01;3.43;;;2.20;;
3487;SDS011;38546;48.170;11.724;2024-02-15T09:05:31;5.07;;;2.63;;
3487;SDS011;38546;48.170;11.724;2024-02-15T09:08:02;3.43;;;2.27;;
3487;SDS011;38546;48.170;11.724;2024-02-15T09:10:37;2.47;;;1.97;;
3487;SDS011;38546;48.170;11.724;2024-02-15T09:13:09;2.90;;;2.40;;
3487;SDS011;38546;48.170;11.724;2024-02-15T09:15:39;1.90;;;1.80;;
3487;SDS011;38546;48.170;11.724;2024-02-15T09:18:11;2.20;;;1.97;;
3487;SDS011;38546;48.170;11.724;2024-02-15T09:20:42;2.07;;;1.77;;
3487;SDS011;38546;48.170;11.724;2024-02-15T09:23:15;2.40;;;1.50;;
3487;SDS011;38546;48.170;11.724;2024-02-15T09:25:45;1.73;;;1.63;;
3487;SDS011;38546;48.170;11.724;2024-02-15T09:28:19;3.70;;;1.80;;
3487;SDS011;38546;48.170;11.724;2024-02-15T09:30:53;3.70;;;3.20;;
3487;SDS011;38546;48.170;11.724;2024-02-15T09:33:29;2.20;;;2.00;;
3487;SDS011;38546;48.170;11.724;2024-02-15T09:35:59;3.00;;;2.03;;
3487;SDS011;38546;48.170;11.724;2024-02-15T09:38:30;2.00;;;1.90;;
3487;SDS011;38546;48.170;11.724;2024-02-15T09:41:01;1.70;;;1.60;;
3487;SDS011;38546;48.170;11.724;2024-02-15T09:43:32;1.90;;;1.70;;
3487;SDS011;38546;48.170;11.724;2024-02-15T09:46:04;2.13;;;1.93;;
3487;SDS011;38546;48.170;11.724;2024-02-15T09:48:36;3.60;;;1.70;;
3487;SDS011;38546;48.170;11.724;2024-02-15T09:51:11;2.30;;;1.90;;
3487;SDS011;38546;48.170;11.724;2024-02-15T09:53:42;2.30;;;1.73;;
3487;SDS011;38546;48.170;11.724;2024-02-15T09:56:14;1.63;;;1.53;;
3487;SDS011;38546;48.170;11.724;2024-02-15T09:58:45;2.70;;;1.50;;
3487;SDS011;38546;48.170;11.724;2024-02-15T10:01:16;1.67;;;1.30;;
3487;SDS011;38546;48.170;11.724;2024-02-15T10:03:50;2.23;;;1.40;;
3487;SDS011;38546;48.170;11.724;2024-02-15T10:06:23;1.10;;;1.10;;
3487;SDS011;38546;48.170;11.724;2024-02-15T10:08:55;1.60;;;1.50;;
3487;SDS011;38546;48.170;11.724;2024-02-15T10:12:00;1.33;;;1.23;;
3487;SDS011;38546;48.170;11.724;2024-02-15T10:14:31;1.43;;;1.30;;
3487;SDS011;38546;48.170;11.724;2024-02-15T10:17:07;1.30;;;1.20;;
3487;SDS011;38546;48.170;11.724;2024-02-15T10:19:43;1.30;;;1.20;;
3487;SDS011;38546;48.170;11.724;2024-02-15T10:22:14;1.43;;;1.33;;
3487;SDS011;38546;48.170;11.724;2024-02-15T10:24:45;1.27;;;1.20;;
3487;SDS011;38546;48.170;11.724;2024-02-15T10:27:16;1.50;;;1.40;;
3487;SDS011;38546;48.170;11.724;2024-02-15T10:29:53;1.30;;;1.20;;
3487;SDS011;38546;48.170;11.724;2024-02-15T10:32:45;1.40;;;1.30;;
3487;SDS011;38546;48.170;11.724;2024-02-15T10:35:20;1.50;;;1.40;;
3487;SDS011;38546;48.170;11.724;2024-02-15T10:37:51;1.27;;;1.17;;
3487;SDS011;38546;48.170;11.724;2024-02-15T10:40:23;1.50;;;1.40;;
3487;SDS011;38546;48.170;11.724;2024-02-15T10:42:53;1.90;;;1.40;;
3487;SDS011;38546;48.170;11.724;2024-02-15T10:45:26;1.30;;;1.30;;
3487;SDS011;38546;48.170;11.724;2024-02-15T10:47:58;1.53;;;1.20;;
3487;SDS011;38546;48.170;11.724;2024-02-15T10:50:29;1.13;;;1.13;;
3487;SDS011;38546;48.170;11.724;2024-02-15T10:52:59;1.20;;;1.20;;
3487;SDS011;38546;48.170;11.724;2024-02-15T10:55:59;1.60;;;1.50;;
3487;SDS011;38546;48.170;11.724;2024-02-15T11:01:54;2.20;;;1.20;;
3487;SDS011;38546;48.170;11.724;2024-02-15T11:04:30;2.20;;;1.30;;
3487;SDS011;38546;48.170;11.724;2024-02-15T11:07:05;1.30;;;1.30;;
3487;SDS011;38546;48.170;11.724;2024-02-15T11:09:36;1.33;;;1.30;;
3487;SDS011;38546;48.170;11.724;2024-02-15T11:12:08;3.17;;;1.30;;
3487;SDS011;38546;48.170;11.724;2024-02-15T11:14:43;1.10;;;1.10;;
3487;SDS011;38546;48.170;11.724;2024-02-15T11:17:44;1.50;;;1.37;;
3487;SDS011;38546;48.170;11.724;2024-02-15T11:24:48;1.10;;;1.00;;
3487;SDS011;38546;48.170;11.724;2024-02-15T11:27:25;1.17;;;1.17;;
3487;SDS011;38546;48.170;11.724;2024-02-15T11:30:02;1.37;;;1.27;;
3487;SDS011;38546;48.170;11.724;2024-02-15T11:32:43;2.63;;;1.17;;
3487;SDS011;38546;48.170;11.724;2024-02-15T11:35:23;1.30;;;1.30;;
3487;SDS011;38546;48.170;11.724;2024-02-15T11:37:57;1.27;;;1.20;;
3487;SDS011;38546;48.170;11.724;2024-02-15T11:45:05;2.03;;;1.23;;
3487;SDS011;38546;48.170;11.724;2024-02-15T11:47:40;1.53;;;1.53;;
3487;SDS011;38546;48.170;11.724;2024-02-15T11:50:20;1.10;;;1.10;;
3487;SDS011;38546;48.170;11.724;2024-02-15T11:52:52;1.40;;;1.20;;
3487;SDS011;38546;48.170;11.724;2024-02-15T11:55:39;1.20;;;1.20;;
3487;SDS011;38546;48.170;11.724;2024-02-15T11:58:11;1.70;;;1.60;;
3487;SDS011;38546;48.170;11.724;2024-02-15T12:00:51;2.30;;;1.70;;
3487;SDS011;38546;48.170;11.724;2024-02-15T12:03:52;1.50;;;1.40;;
3487;SDS011;38546;48.170;11.724;2024-02-15T12:06:43;1.30;;;1.20;;
3487;SDS011;38546;48.170;11.724;2024-02-15T12:09:32;1.63;;;1.53;;
3487;SDS011;38546;48.170;11.724;2024-02-15T12:12:21;1.47;;;1.47;;
3487;SDS011;38546;48.170;11.724;2024-02-15T12:15:10;1.10;;;1.10;;
3487;SDS011;38546;48.170;11.724;2024-02-15T12:18:17;1.47;;;1.37;;
3487;SDS011;38546;48.170;11.724;2024-02-15T12:21:07;2.20;;;1.57;;
3487;SDS011;38546;48.170;11.724;2024-02-15T12:23:39;1.63;;;1.53;;
3487;SDS011;38546;48.170;11.724;2024-02-15T12:26:11;1.20;;;1.10;;
3487;SDS011;38546;48.170;11.724;2024-02-15T12:28:44;2.07;;;1.23;;
3487;SDS011;38546;48.170;11.724;2024-02-15T12:31:20;1.87;;;1.77;;
3487;SDS011;38546;48.170;11.724;2024-02-15T12:34:01;1.13;;;1.13;;
3487;SDS011;38546;48.170;11.724;2024-02-15T12:36:36;1.77;;;1.30;;
3487;SDS011;38546;48.170;11.724;2024-02-15T12:39:07;1.53;;;1.40;;
3487;SDS011;38546;48.170;11.724;2024-02-15T12:41:48;4.70;;;1.37;;
3487;SDS011;38546;48.170;11.724;2024-02-15T12:44:22;1.37;;;1.37;;
3487;SDS011;38546;48.170;11.724;2024-02-15T12:46:57;1.93;;;1.37;;
3487;SDS011;38546;48.170;11.724;2024-02-15T12:49:30;1.40;;;1.30;;
3487;SDS011;38546;48.170;11.724;2024-02-15T12:55:15;1.40;;;1.30;;
3487;SDS011;38546;48.170;11.724;2024-02-15T12:57:52;1.40;;;1.40;;
3487;SDS011;38546;48.170;11.724;2024-02-15T13:00:26;1.30;;;1.30;;
3487;SDS011;38546;48.170;11.724;2024-02-15T13:03:03;1.77;;;1.67;;
3487;SDS011;38546;48.170;11.724;2024-02-15T13:05:35;1.60;;;1.50;;
3487;SDS011;38546;48.170;11.724;2024-02-15T13:08:07;1.83;;;1.60;;
3487;SDS011;38546;48.170;11.724;2024-02-15T13:10:43;1.70;;;1.60;;
3487;SDS011;38546;48.170;11.724;2024-02-15T13:13:15;1.60;;;1.50;;
3487;SDS011;38546;48.170;11.724;2024-02-15T13:15:47;1.47;;;1.37;;
3487;SDS011;38546;48.170;11.724;2024-02-15T13:18:17;1.70;;;1.60;;
3487;SDS011;38546;48.170;11.724;2024-02-15T13:20:48;1.87;;;1.77;;
3487;SDS011;38546;48.170;11.724;2024-02-15T13:23:22;3.70;;;1.47;;
3487;SDS011;38546;48.170;11.724;2024-02-15T13:25:55;2.10;;;1.70;;
3487;SDS011;38546;48.170;11.724;2024-02-15T13:28:27;1.50;;;1.40;;
3487;SDS011;38546;48.170;11.724;2024-02-15T13:30:58;1.90;;;1.63;;
3487;SDS011;38546;48.170;11.724;2024-02-15T13:33:28;1.60;;;1.50;;
3487;SDS011;38546;48.170;11.724;2024-02-15T13:36:01;1.33;;;1.23;;
3487;SDS011;38546;48.170;11.724;2024-02-15T13:38:33;1.23;;;1.23;;
3487;SDS011;38546;48.170;11.724;2024-02-15T13:41:06;2.20;;;1.90;;
3487;SDS011;38546;48.170;11.724;2024-02-15T13:43:38;1.70;;;1.40;;
3487;SDS011;38546;48.170;11.724;2024-02-15T13:46:11;1.43;;;1.33;;
3487;SDS011;38546;48.170;11.724;2024-02-15T13:48:42;1.53;;;1.43;;
3487;SDS011;38546;48.170;11.724;2024-02-15T13:51:13;1.87;;;1.30;;
3487;SDS011;38546;48.170;11.724;2024-02-15T13:53:44;1.50;;;1.40;;
3487;SDS011;38546;48.170;11.724;2024-02-15T13:56:14;1.20;;;1.20;;
3487;SDS011;38546;48.170;11.724;2024-02-15T13:58:46;1.57;;;1.40;;
3487;SDS011;38546;48.170;11.724;2024-02-15T14:01:17;3.27;;;1.80;;
3487;SDS011;38546;48.170;11.724;2024-02-15T14:03:48;1.40;;;1.30;;
3487;SDS011;38546;48.170;11.724;2024-02-15T14:06:19;3.47;;;2.07;;
3487;SDS011;38546;48.170;11.724;2024-02-15T14:08:49;1.70;;;1.60;;
3487;SDS011;38546;48.170;11.724;2024-02-15T14:11:20;1.80;;;1.70;;
3487;SDS011;38546;48.170;11.724;2024-02-15T14:13:51;1.70;;;1.60;;
3487;SDS011;38546;48.170;11.724;2024-02-15T14:16:28;2.87;;;1.70;;
3487;SDS011;38546;48.170;11.724;2024-02-15T14:18:59;1.80;;;1.70;;
3487;SDS011;38546;48.170;11.724;2024-02-15T14:21:32;4.13;;;1.60;;
3487;SDS011;38546;48.170;11.724;2024-02-15T14:24:08;4.37;;;1.93;;
3487;SDS011;38546;48.170;11.724;2024-02-15T14:26:38;1.87;;;1.77;;
3487;SDS011;38546;48.170;11.724;2024-02-15T14:29:09;1.77;;;1.67;;
3487;SDS011;38546;48.170;11.724;2024-02-15T14:31:40;1.40;;;1.40;;
3487;SDS011;38546;48.170;11.724;2024-02-15T14:34:32;2.13;;;1.60;;
3487;SDS011;38546;48.170;11.724;2024-02-15T14:37:06;3.53;;;1.63;;
3487;SDS011;38546;48.170;11.724;2024-02-15T14:39:36;2.80;;;1.50;;
3487;SDS011;38546;48.170;11.724;2024-02-15T14:42:07;1.80;;;1.70;;
3487;SDS011;38546;48.170;11.724;2024-02-15T14:44:38;3.50;;;1.57;;
3487;SDS011;38546;48.170;11.724;2024-02-15T14:47:08;5.00;;;1.77;;
3487;SDS011;38546;48.170;11.724;2024-02-15T14:49:42;1.60;;;1.50;;
3487;SDS011;38546;48.170;11.724;2024-02-15T14:52:13;1.70;;;1.60;;
3487;SDS011;38546;48.170;11.724;2024-02-15T14:54:44;2.33;;;2.13;;
3487;SDS011;38546;48.170;11.724;2024-02-15T14:57:17;1.67;;;1.57;;
3487;SDS011;38546;48.170;11.724;2024-02-15T14:59:49;1.70;;;1.60;;
3487;SDS011;38546;48.170;11.724;2024-02-15T15:02:19;1.27;;;1.27;;
3487;SDS011;38546;48.170;11.724;2024-02-15T15:04:50;1.50;;;1.50;;
3487;SDS011;38546;48.170;11.724;2024-02-15T15:07:39;1.47;;;1.30;;
3487;SDS011;38546;48.170;11.724;2024-02-15T15:10:28;1.87;;;1.77;;
3487;SDS011;38546;48.170;11.724;2024-02-15T15:13:18;2.50;;;1.43;;
3487;SDS011;38546;48.170;11.724;2024-02-15T15:15:49;1.60;;;1.50;;
3487;SDS011;38546;48.170;11.724;2024-02-15T15:18:20;1.70;;;1.40;;
3487;SDS011;38546;48.170;11.724;2024-02-15T15:20:53;2.60;;;1.37;;
3487;SDS011;38546;48.170;11.724;2024-02-15T15:23:26;2.10;;;1.40;;
3487;SDS011;38546;48.170;11.724;2024-02-15T15:26:01;1.50;;;1.40;;
3487;SDS011;38546;48.170;11.724;2024-02-15T15:28:31;2.13;;;1.60;;
3487;SDS011;38546;48.170;11.724;2024-02-15T15:31:03;2.57;;;1.57;;
3487;SDS011;38546;48.170;11.724;2024-02-15T15:33:34;3.50;;;1.70;;
3487;SDS011;38546;48.170;11.724;2024-02-15T15:36:06;1.60;;;1.50;;
3487;SDS011;38546;48.170;11.724;2024-02-15T15:38:37;3.80;;;1.90;;
3487;SDS011;38546;48.170;11.724;2024-02-15T15:41:08;1.60;;;1.50;;